KFCM/FCM METAR and TAF weather

Enter ICAO airport designator
Station Type Date Time Source
KFCM METAR 2024/04/23 03:53 UTC NOAA

KFCM 230353Z AUTO 27007KT 10SM CLR 15/M01 A2962 RMK AO2 SLP028 T01501011


Station Type Date Time Source
KFCM Decoded METAR 2024/04/23 03:53 UTC NOAA

Minneapolis, Flying Cloud Airport, MN, United States (KFCM) 44-49-56N 093-28-13W 280M
Apr 22, 2024 - 11:53 PM EDT / 2024.04.23 0353 UTC
Wind: from the W (270 degrees) at 8 MPH (7 KT):0
Visibility: 10 mile(s):0
Sky conditions: clear
Temperature: 59.0 F (15.0 C)
Dew Point: 30.0 F (-1.1 C)
Relative Humidity: 33%
Pressure (altimeter): 29.62 in. Hg (1003 hPa)
ob: KFCM 230353Z AUTO 27007KT 10SM CLR 15/M01 A2962 RMK AO2 SLP028 T01501011
cycle: 4

Station Type Date Time Source
KFCM TAF 2018/02/05 20:59 UTC NOAA